Tiempo atmosférico en la estación meteorológica de Pola de Somiedo, Asturias (668 m.)



Fecha
DESCASC
Temp. máxima en grados centígrados (hora)
DESCASC
Temp. mínima en grados centígrados (hora)
DESCASC
Temp. media en grados centígrados
DESCASC
Racha de viento máxima en m/sg (hora)
DESCASC
Velocidad máxima media en intervalos de 10 minutos(hora)
DESCASC
Precipitaciones diarias en mm
DESCASC
Precipitaciones de 00:00 a 06:00 en mm
DESCASC
Precipitaciones de 06:00 a 12:00 en mm
DESCASC
Precipitaciones de 12:00 a 18:00 en mm
DESCASC
Precipitaciones de 18:00 a 24:00 en mm
DESCASC
13-10-2019 19.6 (14:10) 13.3 (22:50) 16.5 14.72 (06:30) 5.28 (04:10) 0.8 0 0.6 0.2 0
12-10-2019 27.4 (16:20) 9.7 (03:00) 18.5 13.61 (17:50) 5 (17:50) 0 0 0 0 0
11-10-2019 27.3 (16:10) 6.7 (02:10) 17 9.17 (16:20) 3.61 (15:10) 0 0 0 0 0
10-10-2019 21 (15:40) 3.3 (00:00) 12.1 5.83 (16:10) 2.5 (15:30) 0 0 0 0 0
09-10-2019 18.3 (15:50) 6.1 (00:00) 12.2 5 (15:50) 2.22 (16:10) 0.2 0 0.2 0 0
08-10-2019 24.9 (14:40) 7.9 (00:00) 16.4 10.28 (15:40) 3.89 (15:40) 0.2 0 0 0 0.2
07-10-2019 26.1 (15:20) 5.9 (00:00) 16 5.56 (16:00) 2.5 (16:00) 0 0 0 0 0
06-10-2019 21.2 (16:10) 8.8 (00:00) 15 5 (15:10) 2.5 (14:00) 0 0 0 0 0
05-10-2019 20.3 (15:10) 7.3 (00:00) 13.8 7.78 (15:50) 3.06 (15:50) 0 0 0 0 0
04-10-2019 21 (14:20) 11.9 (00:00) 16.4 6.39 (14:10) 2.78 (14:10) 0 0 0 0 0
03-10-2019 -- (--) -- (--) -- -- (--) -- (--) -- 0 0 -- 0
02-10-2019 19.7 (16:40) 9.1 (00:00) 14.4 9.72 (01:20) 2.78 (01:20) 0 0 0 0 0
01-10-2019 22.7 (15:30) 9.6 (00:00) 16.2 8.33 (16:10) 3.89 (16:00) 0 0 0 0 0
30-09-2019 27.8 (16:50) 9.8 (00:00) 18.8 5.83 (19:00) 2.22 (16:30) 0 0 0 0 0
29-09-2019 24.4 (15:20) 8.2 (00:00) 16.3 6.67 (15:50) 2.22 (14:00) 0 0 0 0 0
28-09-2019 24.3 (16:50) 5 (00:00) 14.6 5.56 (14:10) 2.22 (14:40) 0 0 0 0 0
27-09-2019 22.5 (16:00) 6.1 (00:00) 14.3 5.83 (16:50) 3.06 (18:00) 0 0 0 0 0
26-09-2019 26.3 (15:50) 6.1 (00:00) 16.2 6.67 (17:40) 2.78 (16:30) 0 0 0 0 0
25-09-2019 20.7 (15:30) 10.1 (00:00) 15.4 6.67 (01:10) 2.78 (01:10) 0 0 0 0 0
24-09-2019 21.4 (17:30) 11.7 (00:00) 16.5 15.83 (02:40) 5.56 (01:50) 1.4 1 0.4 0 0
23-09-2019 19.9 (14:40) 7.9 (00:00) 13.9 9.17 (13:00) 3.61 (12:50) 1.2 0 0 1 0.2
22-09-2019 19.6 (14:00) 8 (00:00) 13.8 13.33 (02:00) 5 (02:20) 0.2 0.2 0 0 0
21-09-2019 22.4 (15:50) 11.7 (00:00) 17 12.5 (14:00) 5 (13:30) 8.4 0 0.2 0 8.2
20-09-2019 27.5 (16:30) 11.3 (00:00) 19.4 7.5 (15:50) 2.78 (16:10) 0.2 0 0.2 0 0
19-09-2019 21.9 (14:30) 11.4 (00:00) 16.6 6.11 (14:00) 2.22 (14:20) 0 0 0 0 0
18-09-2019 23.7 (16:50) 11.8 (00:00) 17.8 4.17 (16:40) 1.67 (16:30) 1.6 1.4 0.2 0 0
17-09-2019 23.5 (16:00) 12.4 (00:00) 17.9 5 (16:10) 1.67 (16:10) 8 0 0 4.8 3.2
16-09-2019 23.5 (16:10) 13.8 (00:00) 18.7 5.56 (16:10) 2.22 (13:40) 10.2 0 0 9 1.2

Gráficas

Temp. máximas Temp. mínimas Temp. medias Precipitaciones Rachas de viento máximas Velocidades máximas media en intervalos de 10 minutos

Datos horarios

Fecha y hora oficial Temperatura (ºC) Velocidad del viento (km/h) Dirección del viento Racha (km/h) Dirección de racha Precipitación (mm) Presión (hPa) Tendencia (hPa) Humedad (%)
2019-10-15 23:00:00 13.3 10 Sur 46 Sudeste 0 -- -- 68
2019-10-15 22:00:00 10.8 8 Sudeste 24 Este 0.4 -- -- 85
2019-10-15 21:00:00 10.2 9 Sur 31 Este 2.2 -- -- 83
2019-10-15 20:00:00 9.8 3 Noroeste 12 Sudoeste 0.6 -- -- 94
2019-10-15 19:00:00 11.2 2 Sur 8 Sudoeste 1 -- -- 93
2019-10-15 18:00:00 13 5 Sur 23 Sudeste 0 -- -- 73
2019-10-15 17:00:00 13.9 6 Sur 21 Sur 0 -- -- 62
2019-10-15 16:00:00 14 5 Sudoeste 19 Sudoeste 0 -- -- 63
2019-10-15 15:00:00 14.1 6 Sudoeste 26 Sudoeste 0 -- -- 60
2019-10-15 14:00:00 14.1 10 Sur 27 Sudoeste 0 -- -- 59
2019-10-15 13:00:00 13.5 7 Sur 22 Oeste 0 -- -- 64
2019-10-15 12:00:00 13.1 7 Sur 22 Este 0 -- -- 61
2019-10-15 11:00:00 8.4 0 Calma 12 Oeste 0 -- -- 90
2019-10-15 10:00:00 6.6 3 Sur 9 Oeste 0 -- -- 91
2019-10-15 09:00:00 6.4 3 Sudoeste 13 Sudoeste 0 -- -- 85
2019-10-15 08:00:00 9.5 5 Nordeste 28 Nordeste 0 -- -- 64
2019-10-15 07:00:00 6.8 6 Nordeste 33 Este 0 -- -- 85
2019-10-15 06:00:00 6.5 4 Sudoeste 9 Sur 0 -- -- 90
2019-10-15 05:00:00 7.8 4 Sudoeste 27 Nordeste 0 -- -- 82
2019-10-15 04:00:00 9.7 9 Nordeste 35 Nordeste 0 -- -- 64
2019-10-15 03:00:00 9.7 9 Este 25 Este 0 -- -- 71
2019-10-15 02:00:00 7.9 5 Sudeste 13 Este 0 -- -- 87
2019-10-15 01:00:00 7.9 2 Sur 13 Sudoeste 0 -- -- 90
2019-10-15 00:00:00 8.6 4 Sudoeste 24 Este 0 -- -- 83
2019-10-14 23:00:00 8.3 8 Este 24 Este 0.2 -- -- 79
2019-10-14 22:00:00 7.5 3 Nordeste 22 Sudeste 1.2 -- -- 91
2019-10-14 21:00:00 7.7 4 Sur 15 Este 0 -- -- 94
2019-10-14 20:00:00 7.8 4 Norte 22 Nordeste 0.2 -- -- 84
2019-10-14 19:00:00 9 12 Nordeste 27 Sudeste 1.2 -- -- 78
2019-10-14 18:00:00 10.6 7 Nordeste 35 Este 0 -- -- 73
2019-10-14 17:00:00 10.8 3 Noroeste 20 Noroeste 0.2 -- -- 79
2019-10-14 16:00:00 10.4 13 Este 43 Sudeste 0.6 -- -- 74
2019-10-14 15:00:00 13.2 12 Sudeste 33 Sudeste 0 -- -- 64
2019-10-14 14:00:00 12.2 3 Sudeste 13 Sudeste 0.4 -- -- 77
2019-10-14 13:00:00 12.6 0 Calma 22 Sudeste 0 -- -- 81
2019-10-14 12:00:00 12.6 5 Sur 19 Este 0 -- -- 70
2019-10-14 11:00:00 10.4 2 Sudoeste 5 Oeste 0 -- -- 97
2019-10-14 10:00:00 9.3 3 Sudoeste 12 Sudoeste 0.4 -- -- 96
2019-10-14 09:00:00 9.5 0 Calma 5 Sudeste 0.4 -- -- 99
2019-10-14 08:00:00 9.8 0 Calma 11 Oeste 0.4 -- -- 98
2019-10-14 07:00:00 10.2 3 Noroeste 12 Noroeste 1 -- -- 97
2019-10-14 06:00:00 11.1 4 Norte 20 Nordeste 0.8 -- -- 89
2019-10-14 05:00:00 12.1 8 Norte 30 Norte 0 -- -- 83
2019-10-14 04:00:00 12.9 5 Norte 18 Noroeste 0 -- -- 94
2019-10-14 03:00:00 12.6 4 Nordeste 18 Norte 0 -- -- 95
2019-10-14 02:00:00 13 5 Nordeste 17 Norte 0 -- -- 93
2019-10-14 01:00:00 16 4 Norte 30 Sur 0 -- -- 76
2019-10-14 00:00:00 17.6 14 Sudoeste 39 Sudeste 0 -- -- 61
2019-10-13 23:00:00 13.3 2 Norte 9 Norte 0 -- -- 94
2019-10-13 22:00:00 13.8 3 Norte 13 Norte 0 -- -- 92
2019-10-13 21:00:00 14.2 3 Noroeste 16 Noroeste 0 -- -- 92
2019-10-13 20:00:00 14.7 5 Noroeste 26 Nordeste 0 -- -- 91
2019-10-13 19:00:00 15.6 6 Noroeste 19 Nordeste 0 -- -- 88
2019-10-13 18:00:00 17.2 4 Norte 12 Norte 0 -- -- 82
2019-10-13 17:00:00 18.1 2 Noroeste 19 Sudoeste 0.2 -- -- 79
2019-10-13 16:00:00 19.3 8 Sudoeste 21 Sudeste 0 -- -- 70
2019-10-13 15:00:00 19.4 7 Sudoeste 18 Sur 0 -- -- 71
2019-10-13 14:00:00 19.4 6 Sudoeste 20 Sudoeste 0 -- -- 72
2019-10-13 13:00:00 17.6 3 Sur 29 Sudoeste 0 -- -- 77
2019-10-13 12:00:00 17 6 Sur 32 Sur 0 -- -- 73
2019-10-13 11:00:00 15.9 6 Sur 44 Sudoeste 0.6 -- -- 78
2019-10-13 10:00:00 16.2 15 Sur 37 Este 0 -- -- 66
2019-10-13 09:00:00 16.6 14 Sudeste 46 Sur 0 -- -- 66
2019-10-13 08:00:00 16.6 10 Sur 42 Sudoeste 0 -- -- 59
2019-10-13 07:00:00 17.1 16 Sur 53 Oeste 0 -- -- 56
2019-10-13 06:00:00 18 17 Sur 50 Sur 0 -- -- 51
2019-10-13 05:00:00 18.4 17 Sur 46 Sudoeste 0 -- -- 50
2019-10-13 04:00:00 19 14 Sur 37 Sur 0 -- -- 48
2019-10-13 03:00:00 19.2 14 Sur 33 Sudoeste 0 -- -- 49
2019-10-13 02:00:00 17.9 5 Sudoeste 20 Sur 0 -- -- 57
2019-10-13 01:00:00 16.6 3 Sur 14 Sudoeste 0 -- -- 74
2019-10-13 00:00:00 16.6 4 Norte 37 Oeste 0 -- -- 77
2019-10-12 23:00:00 15.6 7 Norte 22 Oeste 0 -- -- 81
2019-10-12 22:00:00 15.5 3 Norte 12 Sudeste 0 -- -- 80
2019-10-12 21:00:00 17.4 4 Sur 19 Sudoeste 0 -- -- 76
2019-10-12 20:00:00 21.9 7 Sur 28 Sur 0 -- -- 51
2019-10-12 19:00:00 23.5 12 Sur 31 Este 0 -- -- 44
2019-10-12 18:00:00 24.6 11 Sudeste 49 Sudeste 0 -- -- 40
2019-10-12 17:00:00 25.9 14 Sur 41 Sur 0 -- -- 34
2019-10-12 16:00:00 27.1 10 Sur 30 Sur 0 -- -- 34
2019-10-12 15:00:00 26.4 10 Sur 46 Este 0 -- -- 37
2019-10-12 14:00:00 25.8 10 Sur 34 Sudeste 0 -- -- 39
2019-10-12 13:00:00 24.9 13 Sur 42 Sudeste 0 -- -- 42
2019-10-12 12:00:00 23.6 12 Sur 42 Sudeste 0 -- -- 42
2019-10-12 11:00:00 20.5 12 Sudeste 30 Sudeste 0 -- -- 48
2019-10-12 10:00:00 20.2 14 Sudeste 40 Sudeste 0 -- -- 47
2019-10-12 09:00:00 14.8 8 Sur 26 Sur 0 -- -- 67
2019-10-12 08:00:00 13.3 2 Norte 10 Sudeste 0 -- -- 84
2019-10-12 07:00:00 17.3 6 Sudeste 26 Sudeste 0 -- -- 66
2019-10-12 06:00:00 12.3 5 Oeste 21 Sudoeste 0 -- -- 93
2019-10-12 05:00:00 11.2 0 Calma 9 Este 0 -- -- 100
2019-10-12 04:00:00 10.4 2 Norte 10 Norte 0 -- -- 100
2019-10-12 03:00:00 9.7 0 Calma 7 Este 0 -- -- 100
2019-10-12 02:00:00 10.1 2 Oeste 7 Este 0 -- -- 99
2019-10-12 01:00:00 10.7 0 Calma 5 Sudeste 0 -- -- 97
2019-10-12 00:00:00 11.2 2 Sur 5 Sudoeste 0 -- -- 96
2019-10-11 23:00:00 11.8 2 Sur 5 Sudoeste 0 -- -- 94
2019-10-11 22:00:00 12.8 0 Calma 5 Sudeste 0 -- -- 89
2019-10-11 21:00:00 14.2 3 Sur 5 Sur 0 -- -- 83
2019-10-11 20:00:00 16.7 0 Calma 6 Sudoeste 0 -- -- 75
2019-10-11 19:00:00 19.9 3 Sudoeste 15 Sudeste 0 -- -- 64
2019-10-11 18:00:00 23.2 3 Sudoeste 21 Sur 0 -- -- 53
2019-10-11 17:00:00 25.9 9 Sur 33 Sudeste 0 -- -- 40
2019-10-11 16:00:00 27.2 10 Sur 30 Sudeste 0 -- -- 38
2019-10-11 15:00:00 26.7 8 Sur 32 Sudeste 0 -- -- 39
2019-10-11 14:00:00 26.4 6 Sur 26 Sudeste 0 -- -- 39
2019-10-11 13:00:00 24.4 9 Sur 28 Sudeste 0 -- -- 35
2019-10-11 12:00:00 15.5 2 Sur 10 Este 0 -- -- 82
2019-10-11 11:00:00 8.1 0 Calma 6 Norte 0 -- -- 100
2019-10-11 10:00:00 7.5 2 Sur 6 Sudoeste 0 -- -- 100
2019-10-11 09:00:00 7.1 0 Calma 6 Sur 0 -- -- 100
2019-10-11 08:00:00 7.1 3 Sur 6 Sudoeste 0 -- -- 100
2019-10-11 07:00:00 7 0 Calma 6 Sudeste 0 -- -- 100
2019-10-11 06:00:00 7.1 0 Calma 7 Sur 0 -- -- 100
2019-10-11 05:00:00 6.9 2 Sur 6 Sudoeste 0 -- -- 100
2019-10-11 04:00:00 6.8 3 Sur 6 Sur 0 -- -- 100
2019-10-11 03:00:00 7.2 2 Sur 6 Sur 0 -- -- 100
2019-10-11 02:00:00 6.8 2 Sudoeste 9 Sudeste 0 -- -- 100
2019-10-11 01:00:00 7.1 0 Calma 6 Sudoeste 0 -- -- 100
2019-10-11 00:00:00 7.6 2 Sur 5 Sudeste 0 -- -- 99
2019-10-10 23:00:00 8.4 2 Sur 4 Sudeste 0 -- -- 98
2019-10-10 22:00:00 9.1 0 Calma 0 Calma 0 -- -- 96
2019-10-10 21:00:00 10.5 0 Calma 4 Sur 0 -- -- 92
2019-10-10 20:00:00 12.6 0 Calma 6 Oeste 0 -- -- 88
2019-10-10 19:00:00 15.2 4 Sudoeste 16 Noroeste 0 -- -- 79
2019-10-10 18:00:00 17.2 6 Noroeste 18 Noroeste 0 -- -- 69
2019-10-10 17:00:00 19.6 7 Noroeste 21 Norte 0 -- -- 61
2019-10-10 16:00:00 21 7 Norte 19 Norte 0 -- -- 57
2019-10-10 15:00:00 20.7 8 Norte 18 Noroeste 0 -- -- 55
2019-10-10 14:00:00 18.9 5 Norte 14 Noroeste 0 -- -- 53
2019-10-10 13:00:00 16.2 0 Calma 4 Sudoeste 0 -- -- 61
2019-10-10 12:00:00 9.4 0 Calma -- -- 0 -- -- 100
2019-10-10 11:00:00 3.9 0 Calma -- -- 0 -- -- 100
2019-10-10 10:00:00 3.3 0 Calma -- -- 0 -- -- 100
2019-10-10 09:00:00 3.4 0 Calma -- -- 0 -- -- 100
2019-10-10 08:00:00 3.5 0 Calma -- -- 0 -- -- 100
2019-10-10 07:00:00 3.7 0 Calma -- -- 0 -- -- 100
2019-10-10 06:00:00 4 0 Calma -- -- 0 -- -- 100
2019-10-10 05:00:00 4.5 0 Calma -- -- 0 -- -- 100
2019-10-10 04:00:00 4.8 0 Calma -- -- 0 -- -- 100
2019-10-10 03:00:00 5 0 Calma -- -- 0 -- -- 100
2019-10-10 02:00:00 5.4 0 Calma -- -- 0 -- -- 100
2019-10-10 01:00:00 5.8 0 Calma 4 Sur 0 -- -- 99
2019-10-10 00:00:00 6.1 0 Calma 5 Sur 0 -- -- 98
2019-10-09 23:00:00 6.8 3 Sur 5 Sur 0 -- -- 98
2019-10-09 22:00:00 7.4 3 Sur 5 Sur 0 -- -- 95
2019-10-09 21:00:00 8.5 0 Calma 4 Sur 0 -- -- 92
2019-10-09 20:00:00 10.3 0 Calma 8 Sur 0 -- -- 86
2019-10-09 19:00:00 12.3 3 Sur 12 Norte 0 -- -- 78
2019-10-09 18:00:00 14 3 Noroeste 14 Norte 0 -- -- 67
2019-10-09 17:00:00 17.3 6 Norte 17 Norte 0 -- -- 54
2019-10-09 16:00:00 18.2 8 Norte 18 Noroeste 0 -- -- 50
2019-10-09 15:00:00 17.7 6 Norte 15 Norte 0 -- -- 51
2019-10-09 14:00:00 16.3 7 Norte 14 Norte 0 -- -- 59
2019-10-09 13:00:00 15.1 5 Norte 12 Norte 0 -- -- 62
2019-10-09 12:00:00 12.3 3 Nordeste 5 Nordeste 0 -- -- 80
2019-10-09 11:00:00 8.7 0 Calma 4 Oeste 0 -- -- 100
2019-10-09 10:00:00 7.6 0 Calma 4 Noroeste 0 -- -- 100
2019-10-09 09:00:00 6.2 2 Sur 5 Sudoeste 0 -- -- 100
2019-10-09 08:00:00 6.8 0 Calma 5 Oeste 0 -- -- 100
2019-10-09 07:00:00 7.1 0 Calma 4 Sur 0.2 -- -- 98
2019-10-09 06:00:00 8.7 0 Calma 4 Oeste 0 -- -- 96
2019-10-09 05:00:00 10.5 0 Calma 8 Noroeste 0 -- -- 96
2019-10-09 04:00:00 10.9 3 Noroeste 12 Norte 0 -- -- 96
2019-10-09 03:00:00 11.2 3 Noroeste 9 Noroeste 0 -- -- 94
2019-10-09 02:00:00 11.5 5 Noroeste 14 Norte 0 -- -- 93
2019-10-09 01:00:00 12 2 Noroeste 10 Noroeste 0 -- -- 95
2019-10-09 00:00:00 12.3 3 Noroeste 10 Oeste 0 -- -- 95
2019-10-08 23:00:00 12.6 4 Noroeste 12 Noroeste 0 -- -- 96
2019-10-08 22:00:00 12.9 4 Noroeste 12 Norte 0 -- -- 95
2019-10-08 21:00:00 13.2 4 Norte 13 Nordeste 0 -- -- 95
2019-10-08 20:00:00 13.7 3 Norte 12 Noroeste 0 -- -- 94
2019-10-08 19:00:00 14.5 5 Noroeste 17 Nordeste 0.2 -- -- 93
2019-10-08 18:00:00 16.2 6 Norte 24 Nordeste 0 -- -- 86
2019-10-08 17:00:00 17.7 6 Norte 31 Nordeste 0 -- -- 87
2019-10-08 16:00:00 20.1 10 Norte 37 Nordeste 0 -- -- 78
2019-10-08 15:00:00 24.4 7 Norte 25 Nordeste 0 -- -- 67
2019-10-08 14:00:00 24.8 5 Norte 18 Este 0 -- -- 59
2019-10-08 13:00:00 23 6 Nordeste 29 Este 0 -- -- 61
2019-10-08 12:00:00 15.8 2 Nordeste 5 Este 0 -- -- 98
2019-10-08 11:00:00 9.9 0 Calma 3 Sur 0 -- -- 100
2019-10-08 10:00:00 9.2 3 Sur 7 Este 0 -- -- 100
2019-10-08 09:00:00 8 0 Calma -- -- 0 -- -- 100
2019-10-08 08:00:00 8.1 0 Calma -- -- 0 -- -- 100
2019-10-08 07:00:00 8.3 0 Calma -- -- 0 -- -- 100
2019-10-08 06:00:00 8.5 0 Calma -- -- 0 -- -- 100
2019-10-08 05:00:00 8.6 0 Calma -- -- 0 -- -- 100
2019-10-08 04:00:00 8.4 0 Calma -- -- 0 -- -- 99
2019-10-08 03:00:00 8.2 0 Calma -- -- 0 -- -- 98
2019-10-08 02:00:00 8.7 0 Calma -- -- 0 -- -- 97
2019-10-08 01:00:00 9 0 Calma -- -- 0 -- -- 96
2019-10-08 00:00:00 9.5 0 Calma -- -- 0 -- -- 94
2019-10-07 23:00:00 10.5 0 Calma -- -- 0 -- -- 92
2019-10-07 22:00:00 11.3 0 Calma 5 Sudeste 0 -- -- 88
2019-10-07 21:00:00 12.4 3 Sur 5 Sur 0 -- -- 84
2019-10-07 20:00:00 14.7 0 Calma 3 Sudoeste 0 -- -- 76
2019-10-07 19:00:00 17.7 2 Sudoeste 12 Norte 0 -- -- 64
2019-10-07 18:00:00 20.3 5 Noroeste 18 Noroeste 0 -- -- 52
2019-10-07 17:00:00 24.1 9 Norte 18 Norte 0 -- -- 38
2019-10-07 16:00:00 25.7 9 Norte 20 Norte 0 -- -- 32
2019-10-07 15:00:00 25.9 8 Norte 18 Norte 0 -- -- 31
2019-10-07 14:00:00 24.7 5 Norte 11 Noroeste 0 -- -- 26
2019-10-07 13:00:00 20.8 0 Calma -- -- 0 -- -- 31
2019-10-07 12:00:00 13.9 0 Calma -- -- 0 -- -- 62
2019-10-07 11:00:00 6.8 0 Calma -- -- 0 -- -- 94
2019-10-07 10:00:00 6.6 0 Calma -- -- 0 -- -- 91
2019-10-07 09:00:00 5.9 0 Calma -- -- 0 -- -- 91
2019-10-07 08:00:00 5.9 0 Calma -- -- 0 -- -- 91
2019-10-07 07:00:00 6.2 0 Calma -- -- 0 -- -- 91
2019-10-07 06:00:00 6.4 0 Calma -- -- 0 -- -- 92
2019-10-07 05:00:00 7 0 Calma -- -- 0 -- -- 92
2019-10-07 04:00:00 7.6 0 Calma -- -- 0 -- -- 92
2019-10-07 03:00:00 8.4 0 Calma -- -- 0 -- -- 93
2019-10-07 02:00:00 9.3 0 Calma -- -- 0 -- -- 94
2019-10-07 01:00:00 10.3 0 Calma -- -- 0 -- -- 93
2019-10-07 00:00:00 11.7 0 Calma -- -- 0 -- -- 94
2019-10-06 23:00:00 13.6 0 Calma -- -- 0 -- -- 94
2019-10-06 22:00:00 14.8 0 Calma -- -- 0 -- -- 92
2019-10-06 21:00:00 14.7 0 Calma 6 Sudoeste 0 -- -- 90
2019-10-06 20:00:00 15.4 3 Norte 14 Noroeste 0 -- -- 88
2019-10-06 19:00:00 16.6 6 Norte 16 Noroeste 0 -- -- 83
2019-10-06 18:00:00 17.8 6 Norte 16 Norte 0 -- -- 76
2019-10-06 17:00:00 21.1 7 Norte 18 Norte 0 -- -- 65
2019-10-06 16:00:00 20.9 5 Norte 18 Nordeste 0 -- -- 67
2019-10-06 15:00:00 20.6 7 Norte 17 Noroeste 0 -- -- 67
2019-10-06 14:00:00 21.1 9 Norte 18 Norte 0 -- -- 66
2019-10-06 13:00:00 19.3 5 Norte 15 Noroeste 0 -- -- 70
2019-10-06 12:00:00 16.9 0 Calma -- -- 0 -- -- 80
2019-10-06 11:00:00 13.5 0 Calma -- -- 0 -- -- 94
2019-10-06 10:00:00 12.5 0 Calma -- -- 0 -- -- 99
2019-10-06 09:00:00 11.5 0 Calma -- -- 0 -- -- 100
2019-10-06 08:00:00 11.1 0 Calma 4 Sudeste 0 -- -- 100
2019-10-06 07:00:00 10.5 2 Norte 4 Norte 0 -- -- 100
2019-10-06 06:00:00 9.8 2 Sur 4 Sudoeste 0 -- -- 99
2019-10-06 05:00:00 10.6 3 Sur 4 Oeste 0 -- -- 99
2019-10-06 04:00:00 10.1 0 Calma 5 Sudoeste 0 -- -- 100
2019-10-06 03:00:00 9.1 0 Calma -- -- 0 -- -- 100
2019-10-06 02:00:00 8.8 0 Calma 5 Sudoeste 0 -- -- 99
2019-10-06 01:00:00 9.6 0 Calma 4 Sudoeste 0 -- -- 97
2019-10-06 00:00:00 10.9 2 Sur 5 Sudoeste 0 -- -- 97
2019-10-05 23:00:00 12.4 0 Calma 5 Sur 0 -- -- 95
2019-10-05 22:00:00 13.4 4 Sur 14 Noroeste 0 -- -- 95
2019-10-05 21:00:00 13.9 2 Sudoeste 7 Sudoeste 0 -- -- 91
2019-10-05 20:00:00 15.6 4 Noroeste 15 Norte 0 -- -- 84
2019-10-05 19:00:00 16.6 5 Norte 18 Noroeste 0 -- -- 82
2019-10-05 18:00:00 17.1 7 Norte 22 Noroeste 0 -- -- 80
2019-10-05 17:00:00 20 6 Noroeste 24 Norte 0 -- -- 70
2019-10-05 16:00:00 19.8 9 Norte 28 Norte 0 -- -- 71
2019-10-05 15:00:00 20.1 6 Norte 15 Norte 0 -- -- 70
2019-10-05 14:00:00 18.5 8 Norte 20 Norte 0 -- -- 74
2019-10-05 13:00:00 17.6 7 Norte 14 Norte 0 -- -- 77
2019-10-05 12:00:00 13.5 0 Calma 4 Sudeste 0 -- -- 89
2019-10-05 11:00:00 7.4 2 Norte 3 Norte 0 -- -- 100
2019-10-05 10:00:00 7.3 0 Calma 3 Noroeste 0 -- -- 99
2019-10-05 09:00:00 7.7 0 Calma 3 Sur 0 -- -- 97
2019-10-05 08:00:00 9 0 Calma 6 Sur 0 -- -- 93
2019-10-05 07:00:00 11 4 Sur 7 Sur 0 -- -- 88
2019-10-05 06:00:00 11.9 0 Calma 4 Sur 0 -- -- 88
2019-10-05 05:00:00 12.2 2 Sur 4 Sudoeste 0 -- -- 89
2019-10-05 04:00:00 12.6 0 Calma 6 Sudoeste 0 -- -- 90
2019-10-05 03:00:00 12.8 0 Calma 5 Sudeste 0 -- -- 90
2019-10-05 02:00:00 13.3 2 Sur 7 Sur 0 -- -- 90
2019-10-05 01:00:00 13.6 0 Calma 6 Norte 0 -- -- 97
2019-10-05 00:00:00 13.7 3 Noroeste 9 Noroeste 0 -- -- 97
2019-10-04 23:00:00 13.9 0 Calma 5 Noroeste 0 -- -- 96
2019-10-04 22:00:00 14.1 2 Noroeste 9 Noroeste 0 -- -- 95
2019-10-04 21:00:00 14.4 3 Noroeste 12 Noroeste 0 -- -- 94
2019-10-04 20:00:00 15 2 Noroeste 11 Noroeste 0 -- -- 91
2019-10-04 19:00:00 15.5 3 Noroeste 11 Noroeste 0 -- -- 89
2019-10-04 18:00:00 15.8 4 Norte 12 Norte 0 -- -- 89
2019-10-04 17:00:00 15.9 5 Norte 15 Nordeste 0 -- -- 88
2019-10-04 16:00:00 17 5 Norte 15 Norte 0 -- -- 84
2019-10-04 15:00:00 18.6 6 Norte 23 Nordeste 0 -- -- 80
2019-10-04 14:00:00 20.4 7 Norte 18 Norte 0 -- -- 73
2019-10-04 13:00:00 19.4 6 Norte 15 Noroeste 0 -- -- 77
2019-10-04 12:00:00 17.4 7 Norte 18 Norte 0 -- -- 87
2019-10-04 11:00:00 15.2 2 Oeste 11 Noroeste 0 -- -- 93
2019-10-04 10:00:00 13.4 0 Calma 6 Noroeste 0 -- -- 98
2019-10-04 09:00:00 12.1 0 Calma 5 Oeste 0 -- -- 99
2019-10-04 08:00:00 11.9 0 Calma 5 Sur 0 -- -- 99
2019-10-04 07:00:00 12.4 2 Sur 4 Sudoeste 0 -- -- 99
2019-10-04 06:00:00 12.6 0 Calma 4 Sur 0 -- -- 100
2019-10-04 05:00:00 12.3 0 Calma 5 Sudoeste 0 -- -- 98
2019-10-04 04:00:00 13.3 3 Sur 6 Sudoeste 0 -- -- 98
2019-10-04 03:00:00 14.3 3 Sur 4 Sudoeste 0 -- -- 96
2019-10-04 02:00:00 15.4 3 Sur 5 Sudeste 0 -- -- 96
2019-10-04 01:00:00 15.6 0 Calma 4 Noroeste 0 -- -- 95
2019-10-04 00:00:00 16 0 Calma 4 Sur 0 -- -- 93
2019-10-03 23:00:00 16.1 0 Calma 6 Sudoeste 0 -- -- 90
2019-10-03 22:00:00 16.3 0 Calma 4 Oeste 0 -- -- 87
2019-10-03 21:00:00 16.6 0 Calma 4 Oeste 0 -- -- 85
2019-10-03 20:00:00 17.1 0 Calma 7 Sur 0 -- -- 80
2019-10-03 19:00:00 18.5 2 Noroeste 13 Noroeste 0 -- -- 72
2019-10-03 18:00:00 19.9 4 Norte 21 Norte 0 -- -- 64
2019-10-03 17:00:00 -- -- -- -- -- -- -- -- --
2019-10-03 16:00:00 -- -- -- -- -- -- -- -- --
2019-10-03 15:00:00 24.8 5 Norte 18 Norte 0 -- -- 35
2019-10-03 14:00:00 23.6 5 Norte 15 Norte 0 -- -- 40
2019-10-03 13:00:00 20.7 2 Sudeste 9 Sur 0 -- -- 41
2019-10-03 12:00:00 14 0 Calma 6 Sudeste 0 -- -- 79
2019-10-03 11:00:00 6.9 0 Calma 5 Sudoeste 0 -- -- 100
2019-10-03 10:00:00 6.4 4 Sudeste 8 Sudoeste 0 -- -- 100
2019-10-03 09:00:00 5.9 2 Sur 4 Sudoeste 0 -- -- 100
2019-10-03 08:00:00 6 2 Sur 5 Sudeste 0 -- -- 100
2019-10-03 07:00:00 6.3 0 Calma 4 Sur 0 -- -- 100
2019-10-03 06:00:00 6.8 0 Calma 5 Sur 0 -- -- 100
2019-10-03 05:00:00 7.1 0 Calma -- -- 0 -- -- 100
2019-10-03 04:00:00 7.4 0 Calma -- -- 0 -- -- 99
2019-10-03 03:00:00 8.1 0 Calma 3 Sudoeste 0 -- -- 98
2019-10-03 02:00:00 8.7 0 Calma 3 Sur 0 -- -- 97
2019-10-03 01:00:00 9.4 0 Calma 3 Sur 0 -- -- 95
2019-10-03 00:00:00 10.9 0 Calma 4 Sur 0 -- -- 92
2019-10-02 23:00:00 12.3 0 Calma 2 Oeste 0 -- -- 91
2019-10-02 22:00:00 12.1 0 Calma 2 Noroeste 0 -- -- 91
2019-10-02 21:00:00 11.7 0 Calma 5 Sudoeste 0 -- -- 90
2019-10-02 20:00:00 13.4 3 Sudoeste 12 Norte 0 -- -- 83
2019-10-02 19:00:00 14.9 3 Noroeste 12 Noroeste 0 -- -- 75
2019-10-02 18:00:00 16.1 5 Norte 18 Noroeste 0 -- -- 68
2019-10-02 17:00:00 19.5 5 Norte 14 Norte 0 -- -- 56
2019-10-02 16:00:00 19.4 5 Norte 12 Norte 0 -- -- 60
2019-10-02 15:00:00 17.9 4 Norte 11 Norte 0 -- -- 58
2019-10-02 14:00:00 17.4 5 Norte 12 Nordeste 0 -- -- 62
2019-10-02 13:00:00 15.8 4 Norte 8 Nordeste 0 -- -- 67
2019-10-02 12:00:00 15.1 0 Calma 13 Noroeste 0 -- -- 65
2019-10-02 11:00:00 13.1 5 Norte 13 Nordeste 0 -- -- 85
2019-10-02 10:00:00 12.1 4 Noroeste 16 Noroeste 0 -- -- 88
2019-10-02 09:00:00 12.1 0 Calma 8 Este 0 -- -- 83
2019-10-02 08:00:00 12.1 0 Calma 10 Nordeste 0 -- -- 82
2019-10-02 07:00:00 12.7 0 Calma 18 Nordeste 0 -- -- 75
2019-10-02 06:00:00 13.2 5 Norte 18 Este 0 -- -- 69
2019-10-02 05:00:00 13.4 7 Norte 20 Nordeste 0 -- -- 68
2019-10-02 04:00:00 13 5 Nordeste 27 Este 0 -- -- 68
2019-10-02 03:00:00 12.4 5 Norte 28 Nordeste 0 -- -- 70
2019-10-02 02:00:00 12.6 3 Norte 35 Nordeste 0 -- -- 71
2019-10-02 01:00:00 9.1 0 Calma 10 Este 0 -- -- 90
2019-10-02 00:00:00 10.2 4 Oeste 15 Sudoeste 0 -- -- 85
2019-10-01 23:00:00 11.3 5 Sudoeste 14 Oeste 0 -- -- 81
2019-10-01 22:00:00 12.9 6 Sudoeste 13 Sur 0 -- -- 75
2019-10-01 21:00:00 16.3 4 Nordeste 21 Sudeste 0 -- -- 61
2019-10-01 20:00:00 18 8 Este 20 Este 0 -- -- 56
2019-10-01 19:00:00 18.6 9 Este 22 Norte 0 -- -- 52
2019-10-01 18:00:00 19.8 4 Nordeste 24 Este 0 -- -- 51
2019-10-01 17:00:00 22 6 Nordeste 30 Nordeste 0 -- -- 48
2019-10-01 16:00:00 22.3 14 Nordeste 27 Nordeste 0 -- -- 43
2019-10-01 15:00:00 22.4 4 Noroeste 19 Nordeste 0 -- -- 42
2019-10-01 14:00:00 20.6 8 Nordeste 26 Nordeste 0 -- -- 48
2019-10-01 13:00:00 20.1 8 Norte 27 Sudeste 0 -- -- 51
2019-10-01 12:00:00 19.4 7 Este 24 Sudeste 0 -- -- 56
2019-10-01 11:00:00 15.3 3 Nordeste 10 Nordeste 0 -- -- 97
2019-10-01 10:00:00 13.6 0 Calma 13 Este 0 -- -- 100
2019-10-01 09:00:00 11.5 4 Sur 8 Oeste 0 -- -- 100
2019-10-01 08:00:00 10.7 4 Oeste 8 Sudeste 0 -- -- 100
2019-10-01 07:00:00 9.7 3 Norte 9 Oeste 0 -- -- 100
2019-10-01 06:00:00 9.9 3 Sudoeste 8 Sudeste 0 -- -- 100
2019-10-01 05:00:00 10.5 3 Sur 6 Sudoeste 0 -- -- 100
2019-10-01 04:00:00 11.4 2 Oeste 8 Sudeste 0 -- -- 100
2019-10-01 03:00:00 11.9 2 Sur 8 Este 0 -- -- 100
2019-10-01 02:00:00 12.1 2 Nordeste 5 Sudoeste 0 -- -- 99
2019-10-01 01:00:00 12.4 3 Sur 6 Sudeste 0 -- -- 98
2019-10-01 00:00:00 13.1 3 Oeste 5 Oeste 0 -- -- 97
2019-09-30 23:00:00 14.1 2 Sur 4 Sur 0 -- -- 96
2019-09-30 22:00:00 15.8 0 Calma 3 Sudeste 0 -- -- 92
2019-09-30 21:00:00 18.1 3 Sur 7 Noroeste 0 -- -- 87
2019-09-30 20:00:00 20.3 3 Noroeste 17 Noroeste 0 -- -- 82
2019-09-30 19:00:00 21.6 8 Nordeste 21 Nordeste 0 -- -- 75
2019-09-30 18:00:00 22.3 2 Sudoeste 13 Sudoeste 0 -- -- 64
2019-09-30 17:00:00 27.6 6 Sudoeste 18 Sudoeste 0 -- -- 46
2019-09-30 16:00:00 27.6 5 Sur 20 Sur 0 -- -- 47
2019-09-30 15:00:00 27 7 Sur 18 Sudoeste 0 -- -- 48
2019-09-30 14:00:00 26.2 4 Sudoeste 17 Sur 0 -- -- 53
2019-09-30 13:00:00 23.1 3 Norte 7 Norte 0 -- -- 66
2019-09-30 12:00:00 17 0 Calma 3 Norte 0 -- -- 97
2019-09-30 11:00:00 10.8 0 Calma 3 Norte 0 -- -- 100
2019-09-30 10:00:00 10.4 2 Sudoeste 5 Sur 0 -- -- 100
2019-09-30 09:00:00 9.9 0 Calma 4 Sur 0 -- -- 100
2019-09-30 08:00:00 10 2 Sur 5 Sur 0 -- -- 100
2019-09-30 07:00:00 9.8 3 Sur 5 Sur 0 -- -- 100
2019-09-30 06:00:00 9.9 2 Sur 6 Oeste 0 -- -- 100
2019-09-30 05:00:00 10.1 3 Sur 6 Oeste 0 -- -- 100
2019-09-30 04:00:00 10.2 3 Sur 9 Sudeste 0 -- -- 100
2019-09-30 03:00:00 10.2 3 Sudoeste 7 Sudoeste 0 -- -- 100
2019-09-30 02:00:00 10.3 3 Sudoeste 6 Oeste 0 -- -- 99
2019-09-30 01:00:00 10.9 3 Sur 7 Sudeste 0 -- -- 97
2019-09-30 00:00:00 12 0 Calma 7 Sudeste 0 -- -- 95
2019-09-29 23:00:00 13.2 2 Sur 5 Sudoeste 0 -- -- 96
2019-09-29 22:00:00 14.1 0 Calma 8 Sur 0 -- -- 95
2019-09-29 21:00:00 15.9 3 Sudoeste 6 Oeste 0 -- -- 93
2019-09-29 20:00:00 18.6 0 Calma 3 Sur 0 -- -- 88
2019-09-29 19:00:00 20.7 0 Calma 5 Sur 0 -- -- 84
2019-09-29 18:00:00 22 0 Calma 8 Norte 0 -- -- 74
2019-09-29 17:00:00 22.5 0 Calma 19 Norte 0 -- -- 67
2019-09-29 16:00:00 23.7 6 Nordeste 24 Este 0 -- -- 61
2019-09-29 15:00:00 23.9 3 Sudoeste 10 Sudoeste 0 -- -- 60
2019-09-29 14:00:00 23.3 8 Sudeste 22 Sudeste 0 -- -- 54
2019-09-29 13:00:00 23.1 6 Sur 14 Sudoeste 0 -- -- 56
2019-09-29 12:00:00 21.8 2 Nordeste 11 Sudoeste 0 -- -- 58
2019-09-29 11:00:00 11.6 2 Nordeste 7 Sudoeste 0 -- -- 92
2019-09-29 10:00:00 10.6 0 Calma 7 Sur 0 -- -- 89
2019-09-29 09:00:00 10.5 0 Calma 5 Este 0 -- -- 83
2019-09-29 08:00:00 11.9 0 Calma 10 Sur 0 -- -- 73
2019-09-29 07:00:00 13.9 6 Sur 22 Sudoeste 0 -- -- 55
2019-09-29 06:00:00 10.5 4 Sur 12 Sur 0 -- -- 76
2019-09-29 05:00:00 9.8 0 Calma 6 Sudeste 0 -- -- 85
2019-09-29 04:00:00 10.2 0 Calma 7 Sur 0 -- -- 84
2019-09-29 03:00:00 10.9 3 Sur 8 Sur 0 -- -- 81
2019-09-29 02:00:00 10.1 4 Sur 8 Sudoeste 0 -- -- 84
2019-09-29 01:00:00 8.7 3 Sur 12 Sudoeste 0 -- -- 92
2019-09-29 00:00:00 8.3 0 Calma -- -- 0 -- -- 94
2019-09-28 23:00:00 8.7 0 Calma -- -- 0 -- -- 94
2019-09-28 22:00:00 9.6 0 Calma 6 Sudeste 0 -- -- 91
2019-09-28 21:00:00 11.1 0 Calma 6 Sudoeste 0 -- -- 87
2019-09-28 20:00:00 13.2 0 Calma 6 Sur 0 -- -- 83
2019-09-28 19:00:00 15.8 2 Noroeste 9 Sur 0 -- -- 74
2019-09-28 18:00:00 19.7 5 Sur 16 Noroeste 0 -- -- 63
2019-09-28 17:00:00 24.1 4 Noroeste 15 Norte 0 -- -- 50
2019-09-28 16:00:00 23.5 5 Norte 18 Noroeste 0 -- -- 52
2019-09-28 15:00:00 22.5 6 Noroeste 20 Noroeste 0 -- -- 51
2019-09-28 14:00:00 20.8 5 Norte 15 Noroeste 0 -- -- 53
2019-09-28 13:00:00 17.2 2 Nordeste 4 Nordeste 0 -- -- 45
2019-09-28 12:00:00 12.2 0 Calma 3 Nordeste 0 -- -- 76
2019-09-28 11:00:00 5.4 0 Calma 2 Norte 0 -- -- 100
2019-09-28 10:00:00 5.1 0 Calma 3 Oeste 0 -- -- 100
2019-09-28 09:00:00 5.1 0 Calma 3 Sudoeste 0 -- -- 99
2019-09-28 08:00:00 5.5 0 Calma 3 Sudeste 0 -- -- 99
2019-09-28 07:00:00 6.2 0 Calma 2 Sudoeste 0 -- -- 97
2019-09-28 06:00:00 7.1 0 Calma 3 Sur 0 -- -- 96
2019-09-28 05:00:00 8.4 0 Calma 3 Sudoeste 0 -- -- 94
2019-09-28 04:00:00 10.2 0 Calma 5 Sudoeste 0 -- -- 89
2019-09-28 03:00:00 11.3 0 Calma 5 Sur 0 -- -- 91
2019-09-28 02:00:00 11.7 2 Sudeste 6 Sur 0 -- -- 87
2019-09-28 01:00:00 11.6 0 Calma 3 Sudoeste 0 -- -- 95
2019-09-28 00:00:00 11.5 0 Calma 3 Sudoeste 0 -- -- 95
2019-09-27 23:00:00 10.9 0 Calma 3 Sur 0 -- -- 96
2019-09-27 22:00:00 11.5 0 Calma 6 Sur 0 -- -- 91
2019-09-27 21:00:00 12.8 2 Sur 5 Sudeste 0 -- -- 88
2019-09-27 20:00:00 15.3 3 Sur 6 Sur 0 -- -- 80
2019-09-27 19:00:00 18.8 3 Nordeste 18 Nordeste 0 -- -- 61
2019-09-27 18:00:00 19.9 11 Este 21 Este 0 -- -- 55
2019-09-27 17:00:00 21.9 5 Norte 21 Este 0 -- -- 60
2019-09-27 16:00:00 22.5 5 Nordeste 18 Norte 0 -- -- 56
2019-09-27 15:00:00 21.7 5 Nordeste 19 Nordeste 0 -- -- 63
2019-09-27 14:00:00 21 5 Nordeste 19 Nordeste 0 -- -- 61
2019-09-27 13:00:00 21 9 Nordeste 19 Nordeste 0 -- -- 59
2019-09-27 12:00:00 17 0 Calma 9 Noroeste 0 -- -- 85
2019-09-27 11:00:00 14.6 0 Calma 8 Noroeste 0 -- -- 94
2019-09-27 10:00:00 12.7 0 Calma 6 Sudoeste 0 -- -- 96
2019-09-27 09:00:00 11.5 2 Oeste 10 Oeste 0 -- -- 95
2019-09-27 08:00:00 10 3 Oeste 8 Oeste 0 -- -- 96
2019-09-27 07:00:00 8.7 2 Sudoeste 6 Oeste 0 -- -- 95
2019-09-27 06:00:00 7.7 3 Sudeste 10 Oeste 0 -- -- 93
2019-09-27 05:00:00 7.2 5 Nordeste 12 Oeste 0 -- -- 95
2019-09-27 04:00:00 6.3 3 Sur 6 Sudeste 0 -- -- 97
2019-09-27 03:00:00 6.1 2 Sur 6 Sudoeste 0 -- -- 96
2019-09-27 02:00:00 6.7 0 Calma 5 Sudoeste 0 -- -- 95
2019-09-27 01:00:00 7.4 0 Calma 8 Sudeste 0 -- -- 92
2019-09-27 00:00:00 8 2 Sur 8 Oeste 0 -- -- 91
2019-09-26 23:00:00 8.8 2 Sur 5 Oeste 0 -- -- 91
2019-09-26 22:00:00 9.8 3 Sudoeste 6 Oeste 0 -- -- 88
2019-09-26 21:00:00 11.3 0 Calma 6 Oeste 0 -- -- 85
2019-09-26 20:00:00 13.7 3 Sur 8 Oeste 0 -- -- 77
2019-09-26 19:00:00 17 2 Sudeste 16 Este 0 -- -- 66
2019-09-26 18:00:00 21.8 6 Sudoeste 24 Sudeste 0 -- -- 41
2019-09-26 17:00:00 24.9 5 Norte 23 Este 0 -- -- 43
2019-09-26 16:00:00 26.1 6 Norte 16 Noroeste 0 -- -- 29
2019-09-26 15:00:00 24.8 5 Norte 14 Norte 0 -- -- 39
2019-09-26 14:00:00 22.7 3 Norte 9 Norte 0 -- -- 43
2019-09-26 13:00:00 19.5 4 Sudeste 10 Sudeste 0 -- -- 49
2019-09-26 12:00:00 14.5 3 Este 8 Noroeste 0 -- -- 73
2019-09-26 11:00:00 6.8 2 Sur 5 Este 0 -- -- 100
2019-09-26 10:00:00 6.2 2 Noroeste 6 Nordeste 0 -- -- 100
2019-09-26 09:00:00 6.2 2 Sudeste 5 Sudoeste 0 -- -- 100
2019-09-26 08:00:00 6.5 2 Noroeste 4 Oeste 0 -- -- 100
2019-09-26 07:00:00 7.2 0 Calma 5 Sudeste 0 -- -- 100
2019-09-26 06:00:00 7.8 0 Calma 5 Sudeste 0 -- -- 100
2019-09-26 05:00:00 8 0 Calma 6 Oeste 0 -- -- 100
2019-09-26 04:00:00 8.2 3 Sur 5 Sudoeste 0 -- -- 100
2019-09-26 03:00:00 8.7 0 Calma 5 Sur 0 -- -- 100
2019-09-26 02:00:00 9.1 3 Sur 4 Sur 0 -- -- 99
2019-09-26 01:00:00 9.8 0 Calma 4 Sudoeste 0 -- -- 99
2019-09-26 00:00:00 10.4 3 Sur 5 Sudoeste 0 -- -- 98
2019-09-25 23:00:00 11.2 0 Calma 3 Sudoeste 0 -- -- 96
2019-09-25 22:00:00 12.2 2 Sudoeste 5 Sudeste 0 -- -- 95
2019-09-25 21:00:00 13.9 0 Calma 5 Sur 0 -- -- 90
2019-09-25 20:00:00 16.1 3 Sur 7 Noroeste 0 -- -- 84
2019-09-25 19:00:00 18.2 0 Calma 9 Norte 0 -- -- 77
2019-09-25 18:00:00 19.7 4 Noroeste 11 Nordeste 0 -- -- 67
2019-09-25 17:00:00 20.5 2 Noroeste 8 Noroeste 0 -- -- 63
2019-09-25 16:00:00 20.3 3 Norte 9 Nordeste 0 -- -- 66
2019-09-25 15:00:00 20.5 3 Norte 9 Nordeste 0 -- -- 64
2019-09-25 14:00:00 20 4 Nordeste 11 Nordeste 0 -- -- 55
2019-09-25 13:00:00 19.1 6 Norte 11 Noroeste 0 -- -- 64
2019-09-25 12:00:00 16.7 3 Sudeste 5 Nordeste 0 -- -- 68
2019-09-25 11:00:00 11.1 3 Nordeste 6 Sudeste 0 -- -- 94
2019-09-25 10:00:00 10.1 0 Calma 4 Norte 0 -- -- 95
2019-09-25 09:00:00 10.4 0 Calma 6 Sudoeste 0 -- -- 93
2019-09-25 08:00:00 10.7 3 Sur 6 Sudeste 0 -- -- 91
2019-09-25 07:00:00 11.8 2 Sur 5 Sudeste 0 -- -- 89
2019-09-25 06:00:00 12.4 3 Sudoeste 7 Oeste 0 -- -- 84
2019-09-25 05:00:00 13.1 2 Sur 10 Nordeste 0 -- -- 79
2019-09-25 04:00:00 13.8 5 Nordeste 16 Nordeste 0 -- -- 72
2019-09-25 03:00:00 13.6 9 Nordeste 21 Nordeste 0 -- -- 69
2019-09-25 02:00:00 14 3 Sudeste 24 Este 0 -- -- 67
2019-09-25 01:00:00 14.5 8 Nordeste 21 Este 0 -- -- 64
2019-09-25 00:00:00 14.1 8 Nordeste 22 Nordeste 0 -- -- 65
2019-09-24 23:00:00 12.6 2 Sur 12 Sudoeste 0 -- -- 82
2019-09-24 22:00:00 14.9 4 Sudoeste 21 Este 0 -- -- 65
2019-09-24 21:00:00 16.4 9 Nordeste 23 Norte 0 -- -- 60
2019-09-24 20:00:00 17 3 Nordeste 9 Norte 0 -- -- 66
2019-09-24 19:00:00 18.9 3 Este 24 Nordeste 0 -- -- 58
2019-09-24 18:00:00 20.1 5 Norte 19 Nordeste 0 -- -- 60
2019-09-24 17:00:00 20.9 12 Nordeste 27 Este 0 -- -- 47
2019-09-24 16:00:00 20.2 7 Nordeste 17 Nordeste 0 -- -- 58
2019-09-24 15:00:00 20.2 5 Nordeste 16 Norte 0 -- -- 66
2019-09-24 14:00:00 20.1 7 Noroeste 17 Oeste 0 -- -- 62
2019-09-24 13:00:00 18.6 0 Calma 8 Sudoeste 0 -- -- 91
2019-09-24 12:00:00 17.4 3 Oeste 8 Sudoeste 0 -- -- 96
2019-09-24 11:00:00 16.4 4 Sudoeste 12 Oeste 0 -- -- 100
2019-09-24 10:00:00 15.7 0 Calma 8 Oeste 0.2 -- -- 100
2019-09-24 09:00:00 15.4 3 Nordeste 18 Oeste 0 -- -- 98
2019-09-24 08:00:00 15.1 4 Norte 12 Oeste 0.2 -- -- 99
2019-09-24 07:00:00 15.3 2 Noroeste 8 Oeste 0 -- -- 98
2019-09-24 06:00:00 15.9 2 Sur 18 Sudeste 0.4 -- -- 94
2019-09-24 05:00:00 19.2 6 Sur 37 Sudeste 0.6 -- -- 75
2019-09-24 04:00:00 20.2 10 Sur 44 Sur 0 -- -- 64
2019-09-24 03:00:00 20.9 15 Sudeste 57 Sur 0 -- -- 59
2019-09-24 02:00:00 20.6 15 Sudeste 50 Sudeste 0 -- -- 61
2019-09-24 01:00:00 20 8 Sur 41 Sudeste 0 -- -- 66
2019-09-24 00:00:00 18.9 7 Sur 23 Sur 0 -- -- 70
2019-09-23 23:00:00 18.4 7 Sur 21 Sudoeste 0 -- -- 72
2019-09-23 22:00:00 18.6 6 Sur 26 Sudeste 0 -- -- 70
2019-09-23 21:00:00 18.4 8 Sur 32 Sudeste 0 -- -- 71
2019-09-23 20:00:00 17.2 9 Sur 28 Sudeste 0.2 -- -- 73
2019-09-23 19:00:00 16.3 5 Sur 17 Sur 0 -- -- 79
2019-09-23 18:00:00 16.3 4 Sur 22 Sur 0.8 -- -- 84
2019-09-23 17:00:00 17.3 4 Sudoeste 25 Sudeste 0.2 -- -- 75
2019-09-23 16:00:00 19.2 9 Sur 32 Sur 0 -- -- 59
2019-09-23 15:00:00 19.6 6 Sudoeste 22 Sudoeste 0 -- -- 58
2019-09-23 14:00:00 19.3 7 Sur 28 Oeste 0 -- -- 53
2019-09-23 13:00:00 19.4 13 Sudoeste 33 Sudoeste 0 -- -- 52
2019-09-23 12:00:00 17.4 8 Sur 25 Sur 0 -- -- 59
2019-09-23 11:00:00 14.1 0 Calma 10 Oeste 0 -- -- 93
2019-09-23 10:00:00 12.2 0 Calma 8 Oeste 0 -- -- 96
2019-09-23 09:00:00 10.5 2 Norte 5 Nordeste 0 -- -- 100
2019-09-23 08:00:00 9.9 0 Calma 6 Sudoeste 0 -- -- 100
2019-09-23 07:00:00 9.5 2 Sudoeste 6 Nordeste 0 -- -- 100
2019-09-23 06:00:00 9 0 Calma 5 Nordeste 0 -- -- 100
2019-09-23 05:00:00 8.7 2 Este 5 Sudoeste 0 -- -- 100
2019-09-23 04:00:00 8.6 3 Nordeste 7 Sur 0 -- -- 100
2019-09-23 03:00:00 8 2 Sur 7 Este 0 -- -- 100
2019-09-23 02:00:00 7.9 0 Calma -- -- 0 -- -- 100
2019-09-23 01:00:00 8.3 0 Calma -- -- 0 -- -- 99
2019-09-23 00:00:00 8.8 0 Calma 3 Sudeste -- -- -- 98
2019-09-22 23:00:00 9.6 2 Sur 5 Sudoeste 0 -- -- 97
2019-09-22 22:00:00 10.5 3 Sur 5 Sudoeste 0 -- -- 95
2019-09-22 21:00:00 12.1 0 Calma 4 Sudoeste 0 -- -- 92
2019-09-22 20:00:00 13.9 0 Calma 6 Sudoeste 0 -- -- 85
2019-09-22 19:00:00 16.3 2 Sudoeste 10 Sur 0 -- -- 74
2019-09-22 18:00:00 17.3 5 Este 17 Nordeste 0 -- -- 61
2019-09-22 17:00:00 17.9 4 Oeste 15 Norte 0 -- -- 63
2019-09-22 16:00:00 18.7 2 Sur 15 Noroeste 0 -- -- 53
2019-09-22 15:00:00 18.8 5 Oeste 16 Sudeste 0 -- -- 48
2019-09-22 14:00:00 19.6 6 Sur 23 Sudoeste 0 -- -- 49
2019-09-22 13:00:00 18.4 5 Sur 17 Sur 0 -- -- 56
2019-09-22 12:00:00 17.2 7 Sur 17 Oeste 0 -- -- 57
2019-09-22 11:00:00 13.6 5 Sur 14 Sur 0 -- -- 74
2019-09-22 10:00:00 10.2 4 Sur 13 Sur 0 -- -- 88
2019-09-22 09:00:00 8.4 3 Sur 7 Oeste 0 -- -- 100
2019-09-22 08:00:00 8.4 0 Calma 6 Oeste 0 -- -- 99
2019-09-22 07:00:00 9.5 0 Calma 9 Oeste 0 -- -- 98
2019-09-22 06:00:00 10.3 2 Norte 7 Oeste 0 -- -- 98
2019-09-22 05:00:00 10.5 2 Sur 10 Norte 0 -- -- 96
2019-09-22 04:00:00 11.3 4 Noroeste 17 Este 0 -- -- 90
2019-09-22 03:00:00 15.3 9 Sudeste 46 Sudeste 0 -- -- 61
2019-09-22 02:00:00 14.4 16 Sudeste 48 Este 0.2 -- -- 67
2019-09-22 01:00:00 10.6 3 Norte 13 Sudoeste 0 -- -- 97
2019-09-22 00:00:00 13.7 3 Sur 14 Oeste 0.6 -- -- 91
2019-09-21 23:00:00 15.4 4 Noroeste 11 Noroeste 4.4 -- -- 99
2019-09-21 22:00:00 16 2 Noroeste 6 Oeste 0.2 -- -- 99
2019-09-21 21:00:00 16.4 2 Norte 10 Sudeste 0.8 -- -- 98
2019-09-21 20:00:00 17 3 Norte 22 Sur 2.2 -- -- 95
2019-09-21 19:00:00 19.8 10 Sur 27 Sur 0 -- -- 73
2019-09-21 18:00:00 20.2 7 Sur 32 Sudoeste 0 -- -- 70
2019-09-21 17:00:00 20.9 9 Sudoeste 33 Sudoeste 0 -- -- 68
2019-09-21 16:00:00 21.9 13 Sudoeste 35 Sur 0 -- -- 62
2019-09-21 15:00:00 21 14 Sudoeste 40 Sur 0 -- -- 66
2019-09-21 14:00:00 20.1 14 Sur 45 Sur 0 -- -- 66
2019-09-21 13:00:00 21.2 14 Sur 33 Sur 0 -- -- 62
2019-09-21 12:00:00 19.5 10 Sur 42 Sudoeste 0.2 -- -- 66
2019-09-21 11:00:00 17.5 11 Sur 34 Sudoeste 0 -- -- 72
2019-09-21 10:00:00 17.5 13 Sudoeste 31 Sudoeste 0 -- -- 73
2019-09-21 09:00:00 17.7 10 Sur 32 Sudoeste 0 -- -- 67
2019-09-21 08:00:00 17.5 9 Sudoeste 41 Sudoeste 0 -- -- 68
2019-09-21 07:00:00 17.8 10 Sur 28 Sudoeste 0 -- -- 67
2019-09-21 06:00:00 16 3 Sudoeste 16 Sudeste 0 -- -- 78
2019-09-21 05:00:00 16.1 2 Noroeste 17 Sudoeste 0 -- -- 79
2019-09-21 04:00:00 17.6 5 Sur 20 Sudeste 0 -- -- 72
2019-09-21 03:00:00 12.5 3 Sudoeste 12 Sur 0 -- -- 100
2019-09-21 02:00:00 11.7 3 Sur 6 Sudeste 0 -- -- 100
2019-09-21 01:00:00 12 3 Oeste 6 Sur 0 -- -- 99
2019-09-21 00:00:00 12.7 0 Calma 4 Sur 0 -- -- 96
2019-09-20 23:00:00 13.8 2 Sur 5 Sur 0 -- -- 95
2019-09-20 22:00:00 15.3 0 Calma 5 Sur 0 -- -- 91
2019-09-20 21:00:00 17.9 2 Sur 11 Sudeste 0 -- -- 83
2019-09-20 20:00:00 20.5 3 Sur 15 Sudeste 0 -- -- 71
2019-09-20 19:00:00 23.2 3 Sur 19 Sudoeste 0 -- -- 58
2019-09-20 18:00:00 25.3 5 Sudoeste 27 Sudoeste 0 -- -- 51
2019-09-20 17:00:00 26.3 7 Sur 26 Sudoeste 0 -- -- 47
2019-09-20 16:00:00 26.9 4 Sudoeste 27 Sur 0 -- -- 48
2019-09-20 15:00:00 25.4 6 Sur 21 Sudoeste 0 -- -- 55
2019-09-20 14:00:00 23.9 5 Sudoeste 17 Oeste 0 -- -- 61
2019-09-20 13:00:00 20.3 0 Calma 4 Sur 0 -- -- 92
2019-09-20 12:00:00 18.4 0 Calma 7 Sudoeste 0 -- -- 94
2019-09-20 11:00:00 14.5 3 Norte 8 Nordeste 0 -- -- 100
2019-09-20 10:00:00 13 2 Sur 6 Sudoeste 0 -- -- 100
2019-09-20 09:00:00 12 2 Sur 5 Sur 0.2 -- -- 100
2019-09-20 08:00:00 11.3 2 Sur 5 Sur 0 -- -- 100
2019-09-20 07:00:00 11.6 2 Sur 6 Sudoeste 0 -- -- 100
2019-09-20 06:00:00 11.7 2 Sur 6 Sur 0 -- -- 100
2019-09-20 05:00:00 11.8 2 Sur 5 Sudeste 0 -- -- 100
2019-09-20 04:00:00 11.8 2 Sur 5 Sudoeste 0 -- -- 100
2019-09-20 03:00:00 12.1 0 Calma 4 Sur 0 -- -- 100
2019-09-20 02:00:00 12.5 0 Calma 3 Sudeste 0 -- -- 99
2019-09-20 01:00:00 13.3 0 Calma 3 Sudeste 0 -- -- 98
2019-09-20 00:00:00 14.9 0 Calma 4 Sur 0 -- -- 96
2019-09-19 23:00:00 16.5 0 Calma 2 Sudoeste 0 -- -- 97
2019-09-19 22:00:00 16.9 0 Calma -- -- 0 -- -- 99
2019-09-19 21:00:00 16.9 0 Calma 3 Sur 0 -- -- 97
2019-09-19 20:00:00 18.2 0 Calma 5 Noroeste 0 -- -- 95
2019-09-19 19:00:00 18.9 0 Calma 6 Noroeste 0 -- -- 93
2019-09-19 18:00:00 20 0 Calma 10 Noroeste 0 -- -- 86
2019-09-19 17:00:00 20.9 3 Noroeste 14 Noroeste 0 -- -- 80
2019-09-19 16:00:00 20.7 7 Noroeste 17 Norte 0 -- -- 82
2019-09-19 15:00:00 20.8 4 Noroeste 22 Noroeste 0 -- -- 78
2019-09-19 14:00:00 21.4 7 Noroeste 22 Noroeste 0 -- -- 74
2019-09-19 13:00:00 20.1 5 Norte 14 Noroeste 0 -- -- 82
2019-09-19 12:00:00 17.9 3 Este 10 Norte 0 -- -- 88
2019-09-19 11:00:00 12.3 0 Calma 3 Sur 0 -- -- 100
2019-09-19 10:00:00 11.6 0 Calma 2 Sur 0 -- -- 100
2019-09-19 09:00:00 11.5 0 Calma 3 Sur 0 -- -- 100
2019-09-19 08:00:00 12.1 0 Calma 2 Sudoeste 0 -- -- 99
2019-09-19 07:00:00 13.3 0 Calma 2 Sudeste 0 -- -- 98
2019-09-19 06:00:00 14.2 0 Calma 0 Calma 0 -- -- 99
2019-09-19 05:00:00 14.6 0 Calma 2 Sur 0 -- -- 99
2019-09-19 04:00:00 14.5 0 Calma 2 Sur 0 -- -- 99
2019-09-19 03:00:00 14.6 0 Calma 2 Sur 0 -- -- 97
2019-09-19 02:00:00 15.6 0 Calma 8 Sur 0 -- -- 93
2019-09-19 01:00:00 17.2 0 Calma 6 Noroeste 0 -- -- 99
2019-09-19 00:00:00 17.4 2 Noroeste 8 Noroeste 0 -- -- 98
2019-09-18 23:00:00 17.7 2 Noroeste 8 Noroeste 0 -- -- 97
2019-09-18 22:00:00 18.2 0 Calma 7 Noroeste 0 -- -- 96
2019-09-18 21:00:00 18.3 0 Calma 8 Noroeste 0 -- -- 95
2019-09-18 20:00:00 19.1 3 Noroeste 13 Noroeste 0 -- -- 92
2019-09-18 19:00:00 19.9 3 Sudoeste 7 Norte 0 -- -- 89
2019-09-18 18:00:00 21.1 3 Sur 9 Oeste 0 -- -- 82
2019-09-18 17:00:00 22.7 5 Noroeste 15 Noroeste 0 -- -- 74
2019-09-18 16:00:00 22.7 5 Norte 12 Nordeste 0 -- -- 72
2019-09-18 15:00:00 21.6 4 Norte 13 Nordeste 0 -- -- 77
2019-09-18 14:00:00 21.3 3 Noroeste 11 Norte 0 -- -- 78
2019-09-18 13:00:00 18.6 2 Nordeste 7 Noroeste 0 -- -- 85
2019-09-18 12:00:00 15.6 0 Calma 4 Noroeste 0.2 -- -- 100
2019-09-18 11:00:00 14.2 0 Calma 5 Sudoeste 0 -- -- 100
2019-09-18 10:00:00 13.4 0 Calma 3 Sudoeste 0 -- -- 100
2019-09-18 09:00:00 12.3 3 Sur 5 Sudeste 0 -- -- 100
2019-09-18 08:00:00 12.2 0 Calma 3 Sudeste 0 -- -- 100
2019-09-18 07:00:00 12.7 0 Calma 4 Sudoeste 0 -- -- 100
2019-09-18 06:00:00 13 2 Sur 3 Oeste 0 -- -- 100
2019-09-18 05:00:00 13.2 0 Calma 4 Norte 0 -- -- 100
2019-09-18 04:00:00 13.2 0 Calma 7 Este 1.2 -- -- 100
2019-09-18 03:00:00 12.7 2 Sudoeste 5 Este 0.2 -- -- 100
2019-09-18 02:00:00 12.1 2 Sur 5 Sur 0 -- -- 100
2019-09-18 01:00:00 11.8 0 Calma 4 Sudoeste 0 -- -- 100
2019-09-18 00:00:00 12.4 0 Calma 5 Noroeste 0.2 -- -- 100
2019-09-17 23:00:00 13.4 2 Sur 4 Sur 0 -- -- 100
2019-09-17 22:00:00 14.5 0 Calma 4 Sur 0 -- -- 100
2019-09-17 21:00:00 15.2 0 Calma 5 Sudoeste 0 -- -- 100